Terminal Aerodrome Forecast
Issued by NWS Wilmington, OH

Current Version | Previous Version | Text Only | Print | Product List | Glossary On
Versions: 1 2 3 4 5 6 7 8 9 10 11 12 13 14 15 16 17 18 19 20 21 22 23 24
676 FTUS41 KILN 230900 AAA TAFCVG TAF AMD KCVG 230900Z 2309/2412 21004KT P6SM BKN040 FM231400 21006KT 6SM BR OVC020 FM231800 21007KT P6SM BKN035 FM240000 17003KT P6SM BKN040 FM240300 16004KT 6SM BR BKN017=

USA.gov is the U.S. government's official web portal to all federal, state and local government web resources and services.